Time;durP1;ratioP1;P1;durP2;ratioP2;P2;SDS_P1;SDS_P2;PMS_P1;PMS_P2;Temp;Humidity;BMP_temperature;BMP_pressure;BME280_temperature;BME280_humidity;BME280_pressure;Samples;Min_cycle;Max_cycle;Signal;HPM_P1;HPM_P2
2022/05/23 00:00:15;;;;;;;;;;;;;;;23.75;58.01;100204.84;4918834;29;19919;-64
2022/05/23 00:03:02;;;;;;;;;;;;;;;23.80;58.17;100200.81;4925036;29;19919;-64
2022/05/23 00:05:47;;;;;;;;;;;;;;;23.92;58.14;100207.78;4918472;29;19923;-64
2022/05/23 00:08:32;;;;;;;;;;;;;;;23.86;57.63;100193.59;4918581;29;19923;-65
2022/05/23 00:11:19;;;;;;;;;;;;;;;23.99;58.18;100191.00;4918703;29;19919;-65
2022/05/23 00:14:04;;;;;;;;;;;;;;;23.98;57.87;100183.88;4918621;29;19919;-61
2022/05/23 00:16:50;;;;;;;;;;;;;;;23.98;57.57;100167.22;4918414;29;20291;-66
2022/05/23 00:19:35;;;;;;;;;;;;;;;24.02;57.43;100156.84;4918248;29;19919;-64
2022/05/23 00:22:21;;;;;;;;;;;;;;;23.87;57.54;100157.03;4918273;29;19923;-64
2022/05/23 00:25:07;;;;;;;;;;;;;;;23.57;58.33;100156.31;4918144;29;19923;-65
2022/05/23 00:27:51;;;;;;;;;;;;;;;23.58;58.42;100155.09;4917953;29;19923;-66
2022/05/23 00:30:36;;;;;;;;;;;;;;;23.51;58.48;100155.97;4918179;29;19919;-65
2022/05/23 00:36:24;;;;;;;;;;;;;;;23.72;57.73;100143.81;4918224;29;19919;-64
2022/05/23 00:39:10;;;;;;;;;;;;;;;23.67;57.99;100142.25;4918359;29;19923;-64
2022/05/23 00:44:58;;;;;;;;;;;;;;;23.87;57.71;100120.19;4918006;29;19919;-65
2022/05/23 00:47:45;;;;;;;;;;;;;;;23.78;57.65;100131.78;4917914;29;19919;-66
2022/05/23 00:50:31;;;;;;;;;;;;;;;23.87;57.67;100129.28;4918606;29;19919;-66
2022/05/23 00:53:21;;;;;;;;;;;;;;;24.02;57.21;100138.19;4917896;29;19919;-65
2022/05/23 00:56:07;;;;;;;;;;;;;;;24.16;57.32;100134.41;4918103;29;19919;-68
2022/05/23 00:58:53;;;;;;;;;;;;;;;24.23;57.16;100129.53;4917956;29;19923;-67
2022/05/23 01:01:38;;;;;;;;;;;;;;;24.19;57.28;100136.34;4917918;29;19919;-65
2022/05/23 01:04:23;;;;;;;;;;;;;;;24.15;57.31;100141.16;4917761;29;19919;-66
2022/05/23 01:07:08;;;;;;;;;;;;;;;24.16;57.47;100142.75;4917684;29;19923;-65
2022/05/23 01:09:53;;;;;;;;;;;;;;;24.09;57.77;100137.28;4917517;29;19919;-63
2022/05/23 01:12:39;;;;;;;;;;;;;;;23.96;58.25;100137.09;4917472;29;19919;-65
2022/05/23 01:15:25;;;;;;;;;;;;;;;23.87;58.78;100140.38;4917616;29;19919;-66
2022/05/23 01:18:09;;;;;;;;;;;;;;;23.77;59.65;100143.34;4917807;29;19919;-65
2022/05/23 01:20:55;;;;;;;;;;;;;;;23.60;60.48;100147.94;4917262;29;20372;-64
2022/05/23 01:23:58;;;;;;;;;;;;;;;23.48;60.74;100140.16;4917040;29;19919;-65
2022/05/23 01:26:48;;;;;;;;;;;;;;;23.48;60.96;100142.91;4917052;29;19927;-66
2022/05/23 01:29:45;;;;;;;;;;;;;;;23.59;60.01;100146.34;4923265;29;20335;-65
2022/05/23 01:32:31;;;;;;;;;;;;;;;23.78;59.71;100139.34;4916952;29;19923;-65
2022/05/23 01:35:17;;;;;;;;;;;;;;;23.71;60.00;100131.91;4916994;29;20379;-66
2022/05/23 01:38:02;;;;;;;;;;;;;;;23.56;60.62;100127.75;4916761;29;19922;-65
2022/05/23 01:41:04;;;;;;;;;;;;;;;23.48;61.05;100126.28;4922974;29;19923;-64
2022/05/23 01:43:49;;;;;;;;;;;;;;;23.46;60.59;100137.03;4917056;29;19919;-66
2022/05/23 01:46:46;;;;;;;;;;;;;;;23.44;61.24;100139.38;4916451;29;19923;-64
2022/05/23 01:49:59;;;;;;;;;;;;;;;23.30;61.86;100140.34;4916530;29;19915;-65
2022/05/23 01:52:58;;;;;;;;;;;;;;;23.29;61.93;100143.53;4916582;29;19919;-64
2022/05/23 01:55:49;;;;;;;;;;;;;;;23.24;62.08;100135.69;4916765;29;19919;-66
2022/05/23 02:01:42;;;;;;;;;;;;;;;23.29;62.02;100124.13;4915908;29;19923;-65
2022/05/23 02:04:31;;;;;;;;;;;;;;;23.23;62.21;100123.78;4916362;29;19923;-66
2022/05/23 02:07:16;;;;;;;;;;;;;;;23.21;62.47;100130.97;4916197;29;20395;-65
2022/05/23 02:10:01;;;;;;;;;;;;;;;23.06;62.78;100116.47;4916684;29;19919;-66
2022/05/23 02:12:53;;;;;;;;;;;;;;;23.11;62.81;100116.00;4916543;29;19923;-66
2022/05/23 02:15:41;;;;;;;;;;;;;;;23.22;63.08;100102.00;4955257;23;19927;-60
2022/05/23 02:18:32;;;;;;;;;;;;;;;23.22;63.31;100100.00;4951734;28;20122;-61
2022/05/23 02:21:17;;;;;;;;;;;;;;;23.09;63.47;100107.31;4947267;29;19922;-60
2022/05/23 02:24:03;;;;;;;;;;;;;;;23.10;63.64;100097.03;4945743;29;19918;-60
2022/05/23 02:26:48;;;;;;;;;;;;;;;22.97;64.11;100088.44;4953362;29;20378;-61
2022/05/23 02:29:43;;;;;;;;;;;;;;;22.80;64.76;100092.22;4954904;28;19918;-62
2022/05/23 02:32:28;;;;;;;;;;;;;;;22.60;65.79;100086.47;4973018;28;19918;-60
2022/05/23 02:35:16;;;;;;;;;;;;;;;22.78;65.02;100076.00;4973236;28;20396;-60
2022/05/23 02:38:02;;;;;;;;;;;;;;;22.81;64.85;100066.03;4974494;28;19918;-60
2022/05/23 02:40:47;;;;;;;;;;;;;;;22.93;64.48;100071.06;4934622;29;19919;-61
2022/05/23 02:43:31;;;;;;;;;;;;;;;22.89;64.44;100075.88;4950857;29;19922;-60
2022/05/23 02:46:16;;;;;;;;;;;;;;;22.92;64.98;100056.41;4949108;29;20305;-60
2022/05/23 02:49:06;;;;;;;;;;;;;;;23.07;64.17;100061.78;4945110;29;20377;-60
2022/05/23 02:51:52;;;;;;;;;;;;;;;23.08;64.31;100094.66;4934418;29;19919;-60
2022/05/23 02:54:39;;;;;;;;;;;;;;;23.01;64.75;100078.09;4936562;29;20378;-60
2022/05/23 02:57:24;;;;;;;;;;;;;;;23.05;64.83;100036.47;4933947;29;19922;-60
2022/05/23 03:00:10;;;;;;;;;;;;;;;23.00;64.50;100049.59;4949281;29;19918;-60
2022/05/23 03:03:02;;;;;;;;;;;;;;;23.24;63.63;100091.28;4949498;29;19918;-60
2022/05/23 03:05:59;;;;;;;;;;;;;;;23.39;63.36;100089.91;4946679;29;19926;-60
2022/05/23 03:08:44;;;;;;;;;;;;;;;23.26;63.84;100094.44;4952340;28;19919;-60
2022/05/23 03:11:29;;;;;;;;;;;;;;;23.52;62.61;100095.72;4947831;28;19919;-60
2022/05/23 03:14:14;;;;;;;;;;;;;;;23.15;64.52;100075.16;4955427;28;20345;-60
2022/05/23 03:17:00;;;;;;;;;;;;;;;22.97;64.72;100058.72;4957214;29;19919;-60
2022/05/23 03:19:45;;;;;;;;;;;;;;;23.16;64.95;100031.56;4958681;28;19919;-60
2022/05/23 03:28:40;;;;;;;;;;;;;;;23.60;63.36;100084.06;4952960;29;20302;-60
2022/05/23 03:31:26;;;;;;;;;;;;;;;23.71;62.58;100095.81;4957212;29;19918;-60
2022/05/23 03:34:12;;;;;;;;;;;;;;;23.23;64.97;100075.84;4957473;29;19918;-60
2022/05/23 03:36:57;;;;;;;;;;;;;;;22.94;65.96;100056.78;4957057;29;19918;-60
2022/05/23 03:39:43;;;;;;;;;;;;;;;22.96;65.65;100053.59;4956633;29;19918;-59
2022/05/23 03:42:29;;;;;;;;;;;;;;;23.13;65.08;100051.78;4959331;28;20294;-60
2022/05/23 03:45:16;;;;;;;;;;;;;;;23.16;65.05;100060.06;4942098;29;19919;-60
2022/05/23 03:48:05;;;;;;;;;;;;;;;23.25;64.45;100068.69;4952465;28;20390;-60
2022/05/23 03:50:50;;;;;;;;;;;;;;;23.26;64.57;100067.47;4951077;28;19922;-59
2022/05/23 03:53:34;;;;;;;;;;;;;;;23.23;64.91;100073.84;4958308;28;19918;-59
2022/05/23 03:56:24;;;;;;;;;;;;;;;23.31;64.75;100074.56;4956705;28;19919;-60
2022/05/23 03:59:13;;;;;;;;;;;;;;;23.24;65.34;100067.09;4956669;29;19918;-61
2022/05/23 04:02:11;;;;;;;;;;;;;;;22.88;67.00;100064.00;4956476;29;19919;-59
2022/05/23 04:04:57;;;;;;;;;;;;;;;23.01;65.96;100070.56;4956802;29;19918;-60
2022/05/23 04:08:16;;;;;;;;;;;;;;;23.20;65.33;100071.91;4958221;28;20378;-61
2022/05/23 04:11:06;;;;;;;;;;;;;;;23.18;65.46;100076.28;4956577;29;19919;-62
2022/05/23 04:13:52;;;;;;;;;;;;;;;23.02;66.70;100079.66;4956145;29;19918;-62
2022/05/23 04:16:37;;;;;;;;;;;;;;;22.95;66.61;100075.00;4957943;28;19919;-61
2022/05/23 04:19:22;;;;;;;;;;;;;;;22.98;66.30;100079.72;4952318;28;20394;-62
2022/05/23 04:22:29;;;;;;;;;;;;;;;23.07;65.60;100086.72;4950489;28;19919;-60
2022/05/23 04:25:20;;;;;;;;;;;;;;;23.11;65.73;100081.94;4944575;29;19923;-62
2022/05/23 04:28:05;;;;;;;;;;;;;;;22.95;66.78;100086.09;4947694;28;20417;-62
2022/05/23 04:30:50;;;;;;;;;;;;;;;22.27;70.24;100076.88;4956112;28;19918;-60
2022/05/23 04:36:43;;;;;;;;;;;;;;;21.97;72.71;100076.75;4975074;28;20296;-63
2022/05/23 04:39:28;;;;;;;;;;;;;;;22.22;71.28;100088.41;4963635;28;19919;-59
2022/05/23 04:42:13;;;;;;;;;;;;;;;22.91;67.83;100087.31;4960319;28;19918;-61
2022/05/23 04:44:57;;;;;;;;;;;;;;;23.32;65.45;100078.88;4960390;28;20321;-61
2022/05/23 04:50:48;;;;;;;;;;;;;;;23.44;64.59;100078.31;4962034;28;19918;-61
2022/05/23 04:53:32;;;;;;;;;;;;;;;23.23;65.59;100073.84;4955777;29;19918;-61
2022/05/23 04:56:24;;;;;;;;;;;;;;;23.26;65.56;100075.03;4956045;29;20282;-61
2022/05/23 04:59:14;;;;;;;;;;;;;;;23.23;65.52;100078.59;4955665;29;19918;-60
2022/05/23 05:02:01;;;;;;;;;;;;;;;23.21;65.80;100081.03;4955493;29;19918;-62
2022/05/23 05:04:46;;;;;;;;;;;;;;;23.11;66.48;100073.63;4956159;29;19918;-61
2022/05/23 05:07:31;;;;;;;;;;;;;;;23.19;65.78;100075.09;4955860;29;19927;-61
2022/05/23 05:10:18;;;;;;;;;;;;;;;23.15;66.53;100075.16;4955973;29;19918;-61
2022/05/23 05:13:03;;;;;;;;;;;;;;;23.30;65.54;100078.53;4955920;29;19943;-61
2022/05/23 05:15:47;;;;;;;;;;;;;;;23.68;64.48;100082.75;4962856;28;19941;-61
2022/05/23 05:18:43;;;;;;;;;;;;;;;23.98;63.21;100078.31;4974935;28;19918;-61
2022/05/23 05:21:43;;;;;;;;;;;;;;;23.93;63.62;100073.25;4974659;28;19918;-59
2022/05/23 05:25:06;;;;;;;;;;;;;;;23.74;63.81;100058.88;4981142;28;19918;-61
2022/05/23 05:27:54;;;;;;;;;;;;;;;23.73;64.00;100050.94;4974609;28;20484;-60
2022/05/23 05:30:44;;;;;;;;;;;;;;;23.75;64.93;100048.56;4971808;28;19918;-62
2022/05/23 05:33:33;;;;;;;;;;;;;;;23.65;65.71;100044.75;4941937;28;19919;-61
2022/05/23 05:36:23;;;;;;;;;;;;;;;23.71;65.42;100031.97;4954424;28;19922;-63
2022/05/23 05:39:09;;;;;;;;;;;;;;;23.78;64.91;100042.16;4953854;29;19919;-61
2022/05/23 05:41:58;;;;;;;;;;;;;;;23.90;64.05;100049.09;4950570;28;19941;-62
2022/05/23 05:44:53;;;;;;;;;;;;;;;24.04;63.06;100065.53;4943057;28;20306;-61
2022/05/23 05:47:41;;;;;;;;;;;;;;;24.13;62.69;100071.31;4951941;29;20306;-62
2022/05/23 05:50:31;;;;;;;;;;;;;;;24.47;62.12;100071.97;4937912;29;19919;-63
2022/05/23 05:53:32;;;;;;;;;;;;;;;24.59;61.57;100070.53;4950093;29;20298;-61
2022/05/23 05:56:20;;;;;;;;;;;;;;;25.06;59.82;100071.22;4945323;28;19919;-61
2022/05/23 05:59:06;;;;;;;;;;;;;;;25.46;58.17;100066.38;4945842;29;20381;-60
2022/05/23 06:01:53;;;;;;;;;;;;;;;25.58;57.66;100064.94;4954377;29;19919;-63
2022/05/23 06:04:37;;;;;;;;;;;;;;;25.01;59.12;100060.59;4954371;29;19919;-63
2022/05/23 06:14:07;;;;;;;;;;;;;;;24.56;61.94;100063.84;4934833;29;19919;-65
2022/05/23 06:17:01;;;;;;;;;;;;;;;24.61;61.45;100057.00;4950128;28;19922;-64
2022/05/23 06:19:52;;;;;;;;;;;;;;;24.70;61.36;100063.56;4948440;28;20390;-64
2022/05/23 06:22:40;;;;;;;;;;;;;;;24.79;61.16;100065.75;4953523;28;19927;-63
2022/05/23 06:25:30;;;;;;;;;;;;;;;25.78;57.76;100063.66;4953987;28;19922;-63
2022/05/23 06:28:19;;;;;;;;;;;;;;;25.81;57.41;100065.56;4953269;28;19926;-62
2022/05/23 06:31:04;;;;;;;;;;;;;;;26.88;54.19;100065.63;4948838;29;19918;-64
2022/05/23 06:33:55;;;;;;;;;;;;;;;26.67;54.22;100066.97;4946413;29;19923;-62
2022/05/23 06:36:43;;;;;;;;;;;;;;;26.45;55.47;100066.00;4950724;29;19919;-64
2022/05/23 06:39:27;;;;;;;;;;;;;;;26.89;53.87;100065.19;4947431;28;19919;-62
2022/05/23 06:42:19;;;;;;;;;;;;;;;27.71;52.09;100077.50;4977665;28;19926;-60
2022/05/23 06:45:41;;;;;;;;;;;;;;;26.47;54.55;100069.09;4974218;28;19918;-60
2022/05/23 06:49:02;;;;;;;;;;;;;;;27.71;51.20;100085.09;4975821;28;19923;-60
2022/05/23 06:52:11;;;;;;;;;;;;;;;27.01;53.64;100086.00;4958790;28;20394;-62
2022/05/23 06:55:04;;;;;;;;;;;;;;;26.58;55.08;100081.56;4938568;29;20449;-62
2022/05/23 06:57:56;;;;;;;;;;;;;;;26.53;54.71;100084.88;4957917;28;19921;-62
2022/05/23 07:00:41;;;;;;;;;;;;;;;26.23;55.87;100083.28;4946360;28;19923;-65
2022/05/23 07:03:31;;;;;;;;;;;;;;;27.23;52.79;100107.25;4953198;29;19922;-69
2022/05/23 07:12:31;;;;;;;;;;;;;;;30.55;44.00;100115.38;4953185;28;19922;-64
2022/05/23 07:15:19;;;;;;;;;;;;;;;30.85;42.79;100114.47;4939391;29;19922;-63
2022/05/23 07:18:05;;;;;;;;;;;;;;;29.29;45.90;100115.19;4934981;29;19919;-65
2022/05/23 07:21:03;;;;;;;;;;;;;;;28.95;47.03;100122.91;4946781;29;19923;-63
2022/05/23 07:23:58;;;;;;;;;;;;;;;30.16;44.08;100119.81;4946041;29;20318;-66
2022/05/23 07:27:03;;;;;;;;;;;;;;;30.87;42.81;100099.94;4952835;29;20023;-64
2022/05/23 07:29:48;;;;;;;;;;;;;;;30.00;44.61;100106.06;4950547;28;19926;-63
2022/05/23 07:32:32;;;;;;;;;;;;;;;28.94;47.13;100102.50;4953303;28;19918;-60
2022/05/23 07:35:18;;;;;;;;;;;;;;;28.08;49.89;100095.47;4957643;28;19918;-59
2022/05/23 07:38:03;;;;;;;;;;;;;;;27.82;50.45;100091.91;4938417;28;19919;-60
2022/05/23 07:40:50;;;;;;;;;;;;;;;27.61;51.02;100090.56;4959914;28;20303;-60
2022/05/23 07:43:39;;;;;;;;;;;;;;;27.26;52.61;100102.00;4945250;28;19919;-60
2022/05/23 07:46:24;;;;;;;;;;;;;;;27.06;53.31;100097.41;4956384;28;19923;-60
2022/05/23 07:49:10;;;;;;;;;;;;;;;26.93;54.00;100098.56;4956070;28;19918;-60
2022/05/23 07:52:02;;;;;;;;;;;;;;;26.94;53.62;100097.34;4952616;29;19918;-60
2022/05/23 08:01:05;;;;;;;;;;;;;;;26.99;52.82;100082.84;4958777;28;19918;-63
2022/05/23 08:03:50;;;;;;;;;;;;;;;26.90;53.28;100093.88;4958486;28;19918;-61
2022/05/23 08:06:43;;;;;;;;;;;;;;;26.96;53.93;100084.53;4965232;28;20072;-61
2022/05/23 08:09:28;;;;;;;;;;;;;;;26.88;53.76;100077.56;4971069;28;19918;-60
2022/05/23 08:12:19;;;;;;;;;;;;;;;26.90;53.80;100068.75;4950119;28;19922;-60
2022/05/23 08:15:04;;;;;;;;;;;;;;;26.96;53.18;100078.94;4989110;23;20331;-81
2022/05/23 08:17:52;;;;;;;;;;;;;;;26.83;53.67;100086.44;4941670;29;19923;-81
2022/05/23 08:20:47;;;;;;;;;;;;;;;26.78;54.06;100084.97;4944454;29;19927;-80
2022/05/23 08:23:33;;;;;;;;;;;;;;;26.79;54.25;100082.97;4943515;29;19919;-81
2022/05/23 08:26:40;;;;;;;;;;;;;;;26.79;53.63;100086.56;4925536;29;19923;-83
2022/05/23 08:29:31;;;;;;;;;;;;;;;26.76;54.76;100092.25;4914426;29;19919;-81
2022/05/23 08:32:27;;;;;;;;;;;;;;;26.85;53.61;100083.22;4916043;29;19923;-81
2022/05/23 08:35:18;;;;;;;;;;;;;;;26.80;53.88;100074.19;4921470;29;19919;-82
2022/05/23 08:38:11;;;;;;;;;;;;;;;26.88;54.54;100071.97;4919638;29;19923;-81
2022/05/23 08:41:15;;;;;;;;;;;;;;;26.90;53.85;100077.91;4899581;29;20369;-81
2022/05/23 08:44:39;;;;;;;;;;;;;;;26.95;53.62;100073.78;4928253;29;19920;-84
2022/05/23 08:47:33;;;;;;;;;;;;;;;26.90;53.93;100066.75;4929178;29;19927;-80
2022/05/23 08:50:35;;;;;;;;;;;;;;;26.85;53.87;100067.25;4920337;29;19922;-81
2022/05/23 08:53:23;;;;;;;;;;;;;;;26.90;53.51;100068.75;4926845;29;19919;-83
2022/05/23 08:56:34;;;;;;;;;;;;;;;26.93;53.97;100065.84;4928008;29;19919;-81
2022/05/23 08:59:29;;;;;;;;;;;;;;;26.86;54.01;100059.69;4913731;29;19923;-81
2022/05/23 09:02:23;;;;;;;;;;;;;;;26.88;54.09;100066.41;4939596;28;19919;-81
2022/05/23 09:05:12;;;;;;;;;;;;;;;26.88;53.65;100062.81;4925786;29;19918;-81
2022/05/23 09:07:58;;;;;;;;;;;;;;;26.89;53.35;100067.19;4926153;29;19927;-81
2022/05/23 09:10:55;;;;;;;;;;;;;;;26.96;53.50;100067.78;4924055;29;19920;-81
2022/05/23 09:13:40;;;;;;;;;;;;;;;26.96;53.39;100062.19;4922768;29;19919;-81
2022/05/23 09:16:31;;;;;;;;;;;;;;;26.95;52.97;100057.84;4912426;29;19920;-82
2022/05/23 09:19:31;;;;;;;;;;;;;;;26.92;53.51;100064.28;4919037;29;19919;-82
2022/05/23 09:22:19;;;;;;;;;;;;;;;26.97;53.17;100060.94;4913134;29;19919;-82
2022/05/23 09:25:05;;;;;;;;;;;;;;;26.97;52.66;100060.19;4920720;29;19919;-82
2022/05/23 09:27:56;;;;;;;;;;;;;;;27.04;53.05;100054.38;4917361;29;19923;-82
2022/05/23 09:30:42;;;;;;;;;;;;;;;27.05;52.26;100051.16;4928254;29;19919;-82
2022/05/23 09:33:30;;;;;;;;;;;;;;;27.14;52.04;100050.50;4932411;29;19923;-82
2022/05/23 09:36:20;;;;;;;;;;;;;;;27.07;51.19;100043.09;4922359;29;19919;-83
2022/05/23 09:39:09;;;;;;;;;;;;;;;27.14;51.69;100045.69;4925481;29;19919;-82
2022/05/23 09:48:26;;;;;;;;;;;;;;;27.40;50.42;100040.13;4935886;29;19923;-82
2022/05/23 09:51:10;;;;;;;;;;;;;;;27.46;50.01;100041.16;4929453;29;19919;-82
2022/05/23 09:53:55;;;;;;;;;;;;;;;27.55;48.97;100027.31;4911446;29;19920;-84
2022/05/23 09:56:41;;;;;;;;;;;;;;;27.60;49.42;100021.16;4921998;29;19919;-85
2022/05/23 09:59:28;;;;;;;;;;;;;;;27.63;49.32;100017.50;4918589;29;19923;-87
2022/05/23 10:02:16;;;;;;;;;;;;;;;27.60;49.88;100024.75;4920978;29;19920;-85
2022/05/23 10:05:01;;;;;;;;;;;;;;;27.64;49.06;100016.25;4915818;29;20301;-82
2022/05/23 10:07:48;;;;;;;;;;;;;;;27.68;49.33;100016.94;4928072;29;19931;-84
2022/05/23 10:10:34;;;;;;;;;;;;;;;27.74;49.88;100015.13;4916668;29;19920;-83
2022/05/23 10:13:30;;;;;;;;;;;;;;;27.76;49.40;100009.09;4927330;29;19923;-83
2022/05/23 10:16:23;;;;;;;;;;;;;;;27.67;50.13;100012.56;4915781;29;19919;-83
2022/05/23 10:19:10;;;;;;;;;;;;;;;27.72;50.45;100002.84;4924152;29;19919;-85
2022/05/23 10:22:04;;;;;;;;;;;;;;;27.64;50.43;100005.06;4925794;29;19919;-82
2022/05/23 10:24:55;;;;;;;;;;;;;;;27.72;51.13;100014.81;4919977;29;19918;-83
2022/05/23 10:27:44;;;;;;;;;;;;;;;27.70;49.42;100010.88;4925657;29;19949;-85
2022/05/23 10:30:31;;;;;;;;;;;;;;;27.72;49.72;100009.22;4925546;29;19919;-84
2022/05/23 10:33:16;;;;;;;;;;;;;;;27.73;50.28;100010.00;4941563;29;19923;-83
2022/05/23 10:36:07;;;;;;;;;;;;;;;27.71;50.11;100004.84;4933039;29;19918;-85
2022/05/23 10:42:07;;;;;;;;;;;;;;;27.72;50.70;100012.00;4918856;29;19920;-83
2022/05/23 10:45:06;;;;;;;;;;;;;;;27.68;51.01;100005.75;4906266;29;19923;-84
2022/05/23 10:48:10;;;;;;;;;;;;;;;27.75;51.59;100011.09;4925444;29;19923;-84
2022/05/23 10:51:02;;;;;;;;;;;;;;;27.81;50.58;100008.50;4917055;29;20385;-83
2022/05/23 10:53:49;;;;;;;;;;;;;;;27.82;49.93;99999.69;4918678;29;19919;-83
2022/05/23 10:56:37;;;;;;;;;;;;;;;27.90;50.70;100000.22;4927758;29;19919;-83
2022/05/23 10:59:40;;;;;;;;;;;;;;;28.03;50.61;99998.97;4917628;29;19919;-83
2022/05/23 11:02:44;;;;;;;;;;;;;;;28.22;49.68;99987.97;4935945;29;19919;-83
2022/05/23 11:05:47;;;;;;;;;;;;;;;28.22;50.20;99991.56;4917244;29;20392;-84
2022/05/23 11:08:35;;;;;;;;;;;;;;;28.25;49.02;99996.22;4931141;29;20309;-84
2022/05/23 11:11:31;;;;;;;;;;;;;;;28.39;48.99;99997.75;4937114;29;19931;-84
2022/05/23 11:14:15;;;;;;;;;;;;;;;28.45;49.21;99993.13;4927945;29;19923;-83
2022/05/23 11:17:03;;;;;;;;;;;;;;;28.45;49.31;99985.50;4923633;29;19927;-83
2022/05/23 11:20:06;;;;;;;;;;;;;;;28.35;49.62;99989.47;4920337;29;19919;-84
2022/05/23 11:22:55;;;;;;;;;;;;;;;28.33;48.84;99977.19;4917768;29;19919;-82
2022/05/23 11:25:44;;;;;;;;;;;;;;;28.41;49.64;99970.88;4906228;29;19923;-83
2022/05/23 11:34:46;;;;;;;;;;;;;;;28.46;48.52;99975.09;4922854;29;19919;-84
2022/05/23 11:37:45;;;;;;;;;;;;;;;28.50;48.69;99975.75;4930254;29;19923;-84
2022/05/23 11:40:30;;;;;;;;;;;;;;;28.45;48.38;99970.72;4925994;29;19920;-85
2022/05/23 11:43:18;;;;;;;;;;;;;;;28.48;48.91;99965.03;4917564;29;19923;-85
2022/05/23 11:46:05;;;;;;;;;;;;;;;28.58;48.37;99951.88;4933635;29;19919;-84
2022/05/23 11:48:55;;;;;;;;;;;;;;;28.77;48.61;99961.19;4934019;29;19923;-84
2022/05/23 11:51:56;;;;;;;;;;;;;;;28.98;48.49;99948.38;4935511;29;20304;-85
2022/05/23 11:54:42;;;;;;;;;;;;;;;29.13;47.81;99943.78;4935913;29;19918;-84
2022/05/23 11:57:31;;;;;;;;;;;;;;;29.12;48.17;99943.00;4943174;29;19923;-84
2022/05/23 12:00:42;;;;;;;;;;;;;;;29.19;48.59;99951.13;4945476;29;19919;-84
2022/05/23 12:03:49;;;;;;;;;;;;;;;29.17;47.41;99933.22;4934332;29;19926;-84
2022/05/23 12:06:42;;;;;;;;;;;;;;;29.13;47.37;99932.59;4918212;29;19919;-84
2022/05/23 12:09:31;;;;;;;;;;;;;;;29.16;47.18;99929.63;4933595;29;19927;-83
2022/05/23 12:12:26;;;;;;;;;;;;;;;29.03;47.10;99931.00;4928027;29;19919;-84
2022/05/23 12:15:32;;;;;;;;;;;;;;;29.05;47.15;99922.91;4909150;29;20293;-85
2022/05/23 12:18:19;;;;;;;;;;;;;;;29.05;47.21;99931.31;4928072;29;19923;-83
2022/05/23 12:21:29;;;;;;;;;;;;;;;28.79;47.35;99925.13;4939278;29;20502;-84
2022/05/23 12:24:23;;;;;;;;;;;;;;;28.74;47.96;99932.09;4932016;29;19919;-85
2022/05/23 12:27:22;;;;;;;;;;;;;;;28.89;48.33;99927.53;4928784;29;19923;-84
2022/05/23 12:30:16;;;;;;;;;;;;;;;28.96;47.96;99926.44;4931341;29;19923;-85
2022/05/23 12:33:01;;;;;;;;;;;;;;;28.94;48.30;99931.75;4934008;29;19919;-84
2022/05/23 12:35:48;;;;;;;;;;;;;;;28.74;48.78;99922.94;4918485;29;19919;-85
2022/05/23 12:38:48;;;;;;;;;;;;;;;28.80;48.98;99919.06;4917246;29;19920;-83
2022/05/23 12:41:33;;;;;;;;;;;;;;;28.98;47.93;99909.97;4923420;29;19919;-85
2022/05/23 12:44:17;;;;;;;;;;;;;;;28.95;48.09;99916.50;4932918;29;19923;-83
2022/05/23 12:47:24;;;;;;;;;;;;;;;28.95;47.90;99907.31;4921898;29;20304;-85
2022/05/23 12:50:19;;;;;;;;;;;;;;;28.78;48.50;99907.56;4929537;29;19919;-84
2022/05/23 12:53:17;;;;;;;;;;;;;;;28.76;48.40;99904.44;4926197;29;19919;-84
2022/05/23 12:56:26;;;;;;;;;;;;;;;28.79;48.18;99900.72;4932795;29;19919;-83
2022/05/23 12:59:23;;;;;;;;;;;;;;;29.07;48.68;99898.81;4943856;28;19919;-84
2022/05/23 13:02:18;;;;;;;;;;;;;;;29.23;48.12;99908.97;4909910;29;19923;-84
2022/05/23 13:05:08;;;;;;;;;;;;;;;29.22;47.31;99893.41;4948669;28;19919;-84
2022/05/23 13:07:53;;;;;;;;;;;;;;;29.28;47.33;99895.13;4926937;29;19923;-85
2022/05/23 13:10:40;;;;;;;;;;;;;;;29.36;46.77;99894.88;4920504;29;19919;-85
2022/05/23 13:13:34;;;;;;;;;;;;;;;29.22;46.92;99901.81;4930092;29;20320;-86
2022/05/23 13:16:19;;;;;;;;;;;;;;;29.21;47.40;99892.63;4931940;29;19923;-84
2022/05/23 13:22:22;;;;;;;;;;;;;;;29.47;47.61;99889.59;4931985;29;19919;-85
2022/05/23 13:25:07;;;;;;;;;;;;;;;29.52;45.71;99878.56;4916773;29;19923;-86
2022/05/23 13:27:58;;;;;;;;;;;;;;;29.60;46.25;99871.41;4922400;29;19923;-84
2022/05/23 13:30:44;;;;;;;;;;;;;;;29.63;46.80;99866.88;4922020;29;19919;-86
2022/05/23 13:33:45;;;;;;;;;;;;;;;29.64;46.42;99860.81;4928991;29;19918;-85
2022/05/23 13:36:43;;;;;;;;;;;;;;;29.65;45.47;99851.19;4940607;28;19927;-85
2022/05/23 13:39:41;;;;;;;;;;;;;;;29.71;45.08;99843.69;4938919;29;20304;-86
2022/05/23 13:42:28;;;;;;;;;;;;;;;29.65;46.39;99836.38;4943121;29;20380;-84
2022/05/23 13:45:15;;;;;;;;;;;;;;;29.65;46.25;99834.34;4943161;29;19919;-85
2022/05/23 13:48:04;;;;;;;;;;;;;;;29.62;46.38;99840.09;4948213;29;20300;-85
2022/05/23 13:50:52;;;;;;;;;;;;;;;29.71;46.99;99835.28;4949307;29;19918;-85
2022/05/23 13:53:37;;;;;;;;;;;;;;;29.54;46.41;99833.25;4918233;29;20574;-85
2022/05/23 13:56:22;;;;;;;;;;;;;;;29.60;45.93;99823.78;4903867;29;19934;-85
2022/05/23 13:59:11;;;;;;;;;;;;;;;29.60;44.95;99825.78;4913496;29;19923;-84
2022/05/23 14:02:01;;;;;;;;;;;;;;;29.65;45.03;99823.16;4906645;29;19923;-84
2022/05/23 14:04:47;;;;;;;;;;;;;;;29.66;44.20;99816.28;4928881;29;19919;-86
2022/05/23 14:07:36;;;;;;;;;;;;;;;29.59;44.16;99813.81;4920307;29;19923;-85
2022/05/23 14:10:23;;;;;;;;;;;;;;;29.55;43.54;99818.00;4909998;29;19919;-84
2022/05/23 14:13:09;;;;;;;;;;;;;;;29.48;43.85;99807.88;4925233;29;19919;-86
2022/05/23 14:15:54;;;;;;;;;;;;;;;29.49;44.49;99803.84;4944136;23;19935;-60
2022/05/23 14:18:38;;;;;;;;;;;;;;;29.56;43.95;99803.50;4944536;29;19922;-59
2022/05/23 14:21:35;;;;;;;;;;;;;;;29.62;44.69;99801.66;4936314;29;19919;-59
2022/05/23 14:24:28;;;;;;;;;;;;;;;29.47;45.16;99800.72;4943266;28;19919;-59
2022/05/23 14:27:29;;;;;;;;;;;;;;;29.55;44.70;99804.78;4948944;28;19918;-59
2022/05/23 14:30:23;;;;;;;;;;;;;;;29.52;44.99;99802.09;4944600;28;19922;-59
2022/05/23 14:33:28;;;;;;;;;;;;;;;29.43;44.67;99797.28;4939271;29;19926;-59
2022/05/23 14:36:19;;;;;;;;;;;;;;;29.40;44.57;99797.47;4938852;28;19919;-59
2022/05/23 14:39:16;;;;;;;;;;;;;;;29.42;44.51;99792.94;4939309;28;19919;-59
2022/05/23 14:42:19;;;;;;;;;;;;;;;29.44;44.27;99795.28;4942138;29;19919;-58
2022/05/23 14:45:17;;;;;;;;;;;;;;;29.46;44.02;99785.13;4939015;29;19923;-59
2022/05/23 14:48:05;;;;;;;;;;;;;;;29.42;43.47;99786.53;4947782;29;19922;-59
2022/05/23 14:50:52;;;;;;;;;;;;;;;29.50;43.62;99777.38;4955914;28;20378;-59
2022/05/23 14:56:43;;;;;;;;;;;;;;;29.53;43.18;99781.25;4938018;28;19918;-60
2022/05/23 15:02:47;;;;;;;;;;;;;;;29.61;43.30;99785.31;4955785;28;19926;-59
2022/05/23 15:05:31;;;;;;;;;;;;;;;29.53;43.05;99778.47;4972537;28;19918;-59
2022/05/23 15:08:17;;;;;;;;;;;;;;;29.51;44.06;99769.75;4972195;28;19922;-59
2022/05/23 15:11:03;;;;;;;;;;;;;;;29.47;43.30;99767.09;4972455;28;19918;-59
2022/05/23 15:13:48;;;;;;;;;;;;;;;29.39;43.31;99760.25;4978088;28;20370;-59
2022/05/23 15:16:36;;;;;;;;;;;;;;;29.47;42.92;99767.09;4955840;28;20410;-58
2022/05/23 15:19:21;;;;;;;;;;;;;;;29.41;43.75;99762.59;4954658;28;20287;-59
2022/05/23 15:22:13;;;;;;;;;;;;;;;29.45;43.24;99764.00;4954629;28;19919;-58
2022/05/23 15:24:57;;;;;;;;;;;;;;;29.44;42.09;99748.44;4953420;28;19918;-59
2022/05/23 15:27:43;;;;;;;;;;;;;;;29.40;42.70;99745.00;4949407;28;19923;-59
2022/05/23 15:30:30;;;;;;;;;;;;;;;29.44;42.77;99736.44;4952044;29;20326;-57
2022/05/23 15:33:15;;;;;;;;;;;;;;;29.39;43.39;99737.06;4939283;29;19922;-59
2022/05/23 15:35:59;;;;;;;;;;;;;;;29.43;43.33;99737.69;4951962;29;20388;-58
2022/05/23 15:38:44;;;;;;;;;;;;;;;29.45;43.48;99727.56;4952005;29;20321;-58
2022/05/23 15:41:28;;;;;;;;;;;;;;;29.49;42.88;99730.22;4942835;29;19919;-59
2022/05/23 15:44:15;;;;;;;;;;;;;;;29.49;43.52;99719.78;4936054;29;19919;-58